Terminal Aerodrome Forecast
Issued by NWS

Home | Current Version | Previous Version | Text Only | Print | Product List | Glossary On
Versions: 1 2 3 4 5 6 7 8 9 10
641
FTUS44 KSJT 240520
TAFBBD
TAF
KBBD 240520Z 2406/2506 15008KT P6SM BKN015
     FM240800 14010KT P6SM OVC012
     FM241800 16011KT P6SM SCT025
      AMD NOT SKED=

USA.gov is the U.S. government's official web portal to all federal, state and local government web resources and services.